sensor_id;sensor_type;location;lat;lon;timestamp;temperature;humidity
46117;DHT22;32591;48.102;11.772;2023-05-01T00:00:24;10.50;99.90
46117;DHT22;32591;48.102;11.772;2023-05-01T00:02:51;10.40;99.90
46117;DHT22;32591;48.102;11.772;2023-05-01T00:05:18;10.50;99.90
46117;DHT22;32591;48.102;11.772;2023-05-01T00:07:45;10.40;99.90
46117;DHT22;32591;48.102;11.772;2023-05-01T00:10:12;10.40;99.90
46117;DHT22;32591;48.102;11.772;2023-05-01T00:12:39;10.40;99.90
46117;DHT22;32591;48.102;11.772;2023-05-01T00:15:08;10.40;99.90
46117;DHT22;32591;48.102;11.772;2023-05-01T00:17:37;10.40;99.90
46117;DHT22;32591;48.102;11.772;2023-05-01T00:20:05;10.30;99.90
46117;DHT22;32591;48.102;11.772;2023-05-01T00:22:33;10.30;99.90
46117;DHT22;32591;48.102;11.772;2023-05-01T00:25:00;10.30;99.90
46117;DHT22;32591;48.102;11.772;2023-05-01T00:27:27;10.30;99.90
46117;DHT22;32591;48.102;11.772;2023-05-01T00:29:54;10.30;99.90
46117;DHT22;32591;48.102;11.772;2023-05-01T00:32:21;10.30;99.90
46117;DHT22;32591;48.102;11.772;2023-05-01T00:34:49;10.30;99.90
46117;DHT22;32591;48.102;11.772;2023-05-01T00:37:16;10.30;99.90
46117;DHT22;32591;48.102;11.772;2023-05-01T00:39:43;10.20;99.90
46117;DHT22;32591;48.102;11.772;2023-05-01T00:42:10;10.20;99.90
46117;DHT22;32591;48.102;11.772;2023-05-01T00:44:37;10.10;99.90
46117;DHT22;32591;48.102;11.772;2023-05-01T00:47:04;10.10;99.90
46117;DHT22;32591;48.102;11.772;2023-05-01T00:49:31;10.10;99.90
46117;DHT22;32591;48.102;11.772;2023-05-01T00:51:59;10.00;99.90
46117;DHT22;32591;48.102;11.772;2023-05-01T00:54:26;9.90;99.90
46117;DHT22;32591;48.102;11.772;2023-05-01T00:56:54;9.90;99.90
46117;DHT22;32591;48.102;11.772;2023-05-01T00:59:21;9.80;99.90
46117;DHT22;32591;48.102;11.772;2023-05-01T01:01:49;9.70;99.90
46117;DHT22;32591;48.102;11.772;2023-05-01T01:04:16;9.60;99.90
46117;DHT22;32591;48.102;11.772;2023-05-01T01:06:51;9.60;99.90
46117;DHT22;32591;48.102;11.772;2023-05-01T01:09:33;9.40;99.90
46117;DHT22;32591;48.102;11.772;2023-05-01T01:12:09;9.30;99.90
46117;DHT22;32591;48.102;11.772;2023-05-01T01:14:49;9.40;99.90
46117;DHT22;32591;48.102;11.772;2023-05-01T01:17:26;9.40;99.90
46117;DHT22;32591;48.102;11.772;2023-05-01T01:20:25;9.40;99.90
46117;DHT22;32591;48.102;11.772;2023-05-01T01:23:07;9.40;99.90
46117;DHT22;32591;48.102;11.772;2023-05-01T01:26:01;9.30;99.90
46117;DHT22;32591;48.102;11.772;2023-05-01T01:28:58;9.30;99.90
46117;DHT22;32591;48.102;11.772;2023-05-01T01:31:34;9.20;99.90
46117;DHT22;32591;48.102;11.772;2023-05-01T01:34:12;9.20;99.90
46117;DHT22;32591;48.102;11.772;2023-05-01T01:36:46;9.10;99.90
46117;DHT22;32591;48.102;11.772;2023-05-01T01:39:22;9.00;99.90
46117;DHT22;32591;48.102;11.772;2023-05-01T01:41:56;8.90;99.90
46117;DHT22;32591;48.102;11.772;2023-05-01T01:44:29;8.90;99.90
46117;DHT22;32591;48.102;11.772;2023-05-01T01:47:02;8.60;99.90
46117;DHT22;32591;48.102;11.772;2023-05-01T01:49:36;8.60;99.90
46117;DHT22;32591;48.102;11.772;2023-05-01T01:52:05;8.60;99.90
46117;DHT22;32591;48.102;11.772;2023-05-01T01:54:37;8.60;99.90
46117;DHT22;32591;48.102;11.772;2023-05-01T01:57:08;8.70;99.90
46117;DHT22;32591;48.102;11.772;2023-05-01T01:59:38;8.70;99.90
46117;DHT22;32591;48.102;11.772;2023-05-01T02:02:06;8.60;99.90
46117;DHT22;32591;48.102;11.772;2023-05-01T02:04:35;8.60;99.90
46117;DHT22;32591;48.102;11.772;2023-05-01T02:07:05;8.70;99.90
46117;DHT22;32591;48.102;11.772;2023-05-01T02:09:33;8.70;99.90
46117;DHT22;32591;48.102;11.772;2023-05-01T02:12:02;8.60;99.90
46117;DHT22;32591;48.102;11.772;2023-05-01T02:14:31;8.60;99.90
46117;DHT22;32591;48.102;11.772;2023-05-01T02:16:59;8.60;99.90
46117;DHT22;32591;48.102;11.772;2023-05-01T02:19:26;8.50;99.90
46117;DHT22;32591;48.102;11.772;2023-05-01T02:21:56;8.50;99.90
46117;DHT22;32591;48.102;11.772;2023-05-01T02:24:24;8.50;99.90
46117;DHT22;32591;48.102;11.772;2023-05-01T02:26:55;8.60;99.90
46117;DHT22;32591;48.102;11.772;2023-05-01T02:29:26;8.50;99.90
46117;DHT22;32591;48.102;11.772;2023-05-01T02:31:54;8.50;99.90
46117;DHT22;32591;48.102;11.772;2023-05-01T02:34:21;8.50;99.90
46117;DHT22;32591;48.102;11.772;2023-05-01T02:36:47;8.50;99.90
46117;DHT22;32591;48.102;11.772;2023-05-01T02:39:17;8.50;99.90
46117;DHT22;32591;48.102;11.772;2023-05-01T02:41:45;8.50;99.90
46117;DHT22;32591;48.102;11.772;2023-05-01T02:44:14;8.50;99.90
46117;DHT22;32591;48.102;11.772;2023-05-01T02:46:44;8.50;99.90
46117;DHT22;32591;48.102;11.772;2023-05-01T02:49:13;8.50;99.90
46117;DHT22;32591;48.102;11.772;2023-05-01T02:51:42;8.50;99.90
46117;DHT22;32591;48.102;11.772;2023-05-01T02:54:09;8.50;99.90
46117;DHT22;32591;48.102;11.772;2023-05-01T02:56:38;8.60;99.90
46117;DHT22;32591;48.102;11.772;2023-05-01T02:59:05;8.60;99.90
46117;DHT22;32591;48.102;11.772;2023-05-01T03:01:32;8.60;99.90
46117;DHT22;32591;48.102;11.772;2023-05-01T03:03:58;8.60;99.90
46117;DHT22;32591;48.102;11.772;2023-05-01T03:06:25;8.60;99.90
46117;DHT22;32591;48.102;11.772;2023-05-01T03:08:53;8.60;99.90
46117;DHT22;32591;48.102;11.772;2023-05-01T03:11:20;8.60;99.90
46117;DHT22;32591;48.102;11.772;2023-05-01T03:13:50;8.60;99.90
46117;DHT22;32591;48.102;11.772;2023-05-01T03:16:17;8.60;99.90
46117;DHT22;32591;48.102;11.772;2023-05-01T03:18:44;8.60;99.90
46117;DHT22;32591;48.102;11.772;2023-05-01T03:21:11;8.60;99.90
46117;DHT22;32591;48.102;11.772;2023-05-01T03:23:38;8.60;99.90
46117;DHT22;32591;48.102;11.772;2023-05-01T03:26:05;8.60;99.90
46117;DHT22;32591;48.102;11.772;2023-05-01T03:28:32;8.60;99.90
46117;DHT22;32591;48.102;11.772;2023-05-01T03:31:00;8.60;99.90
46117;DHT22;32591;48.102;11.772;2023-05-01T03:33:27;8.50;99.90
46117;DHT22;32591;48.102;11.772;2023-05-01T03:36:00;8.50;99.90
46117;DHT22;32591;48.102;11.772;2023-05-01T03:38:28;8.50;99.90
46117;DHT22;32591;48.102;11.772;2023-05-01T03:40:55;8.50;99.90
46117;DHT22;32591;48.102;11.772;2023-05-01T03:43:23;8.50;99.90
46117;DHT22;32591;48.102;11.772;2023-05-01T03:45:50;8.50;99.90
46117;DHT22;32591;48.102;11.772;2023-05-01T03:48:19;8.50;99.90
46117;DHT22;32591;48.102;11.772;2023-05-01T03:50:46;8.50;99.90
46117;DHT22;32591;48.102;11.772;2023-05-01T03:53:13;8.50;99.90
46117;DHT22;32591;48.102;11.772;2023-05-01T03:55:41;8.40;99.90
46117;DHT22;32591;48.102;11.772;2023-05-01T03:58:08;8.30;99.90
46117;DHT22;32591;48.102;11.772;2023-05-01T04:00:36;8.20;99.90
46117;DHT22;32591;48.102;11.772;2023-05-01T04:03:03;8.20;99.90
46117;DHT22;32591;48.102;11.772;2023-05-01T04:05:32;8.20;99.90
46117;DHT22;32591;48.102;11.772;2023-05-01T04:07:59;8.20;99.90
46117;DHT22;32591;48.102;11.772;2023-05-01T04:10:26;8.10;99.90
46117;DHT22;32591;48.102;11.772;2023-05-01T04:12:53;8.20;99.90
46117;DHT22;32591;48.102;11.772;2023-05-01T04:15:20;8.10;99.90
46117;DHT22;32591;48.102;11.772;2023-05-01T04:17:47;8.00;99.90
46117;DHT22;32591;48.102;11.772;2023-05-01T04:20:14;8.00;99.90
46117;DHT22;32591;48.102;11.772;2023-05-01T04:22:44;8.00;99.90
46117;DHT22;32591;48.102;11.772;2023-05-01T04:25:12;8.00;99.90
46117;DHT22;32591;48.102;11.772;2023-05-01T04:27:39;8.10;99.90
46117;DHT22;32591;48.102;11.772;2023-05-01T04:30:06;8.00;99.90
46117;DHT22;32591;48.102;11.772;2023-05-01T04:32:34;8.00;99.90
46117;DHT22;32591;48.102;11.772;2023-05-01T04:35:01;8.00;99.90
46117;DHT22;32591;48.102;11.772;2023-05-01T04:37:29;8.00;99.90
46117;DHT22;32591;48.102;11.772;2023-05-01T04:39:57;8.00;99.90
46117;DHT22;32591;48.102;11.772;2023-05-01T04:42:29;8.00;99.90
46117;DHT22;32591;48.102;11.772;2023-05-01T04:44:56;8.10;99.90
46117;DHT22;32591;48.102;11.772;2023-05-01T04:47:26;8.20;99.90
46117;DHT22;32591;48.102;11.772;2023-05-01T04:49:53;8.20;99.90
46117;DHT22;32591;48.102;11.772;2023-05-01T04:52:20;8.30;99.90
46117;DHT22;32591;48.102;11.772;2023-05-01T04:54:47;8.50;99.90
46117;DHT22;32591;48.102;11.772;2023-05-01T04:57:15;8.50;99.90
46117;DHT22;32591;48.102;11.772;2023-05-01T04:59:42;8.80;99.90
46117;DHT22;32591;48.102;11.772;2023-05-01T05:02:09;8.60;99.90
46117;DHT22;32591;48.102;11.772;2023-05-01T05:04:36;8.70;99.90
46117;DHT22;32591;48.102;11.772;2023-05-01T05:07:03;8.80;99.90
46117;DHT22;32591;48.102;11.772;2023-05-01T05:09:30;8.80;99.90
46117;DHT22;32591;48.102;11.772;2023-05-01T05:11:57;8.80;99.90
46117;DHT22;32591;48.102;11.772;2023-05-01T05:14:25;8.90;99.90
46117;DHT22;32591;48.102;11.772;2023-05-01T05:16:52;9.00;99.90
46117;DHT22;32591;48.102;11.772;2023-05-01T05:19:19;9.00;99.90
46117;DHT22;32591;48.102;11.772;2023-05-01T05:21:46;9.00;99.90
46117;DHT22;32591;48.102;11.772;2023-05-01T05:24:13;9.10;99.90
46117;DHT22;32591;48.102;11.772;2023-05-01T05:26:40;9.20;99.90
46117;DHT22;32591;48.102;11.772;2023-05-01T05:29:07;9.40;99.90
46117;DHT22;32591;48.102;11.772;2023-05-01T05:31:35;9.40;99.90
46117;DHT22;32591;48.102;11.772;2023-05-01T05:34:02;9.50;99.90
46117;DHT22;32591;48.102;11.772;2023-05-01T05:36:29;9.50;99.90
46117;DHT22;32591;48.102;11.772;2023-05-01T05:38:57;9.60;99.90
46117;DHT22;32591;48.102;11.772;2023-05-01T05:41:24;9.70;99.90
46117;DHT22;32591;48.102;11.772;2023-05-01T05:43:52;9.70;99.90
46117;DHT22;32591;48.102;11.772;2023-05-01T05:46:19;9.70;99.90
46117;DHT22;32591;48.102;11.772;2023-05-01T05:48:47;9.90;99.90
46117;DHT22;32591;48.102;11.772;2023-05-01T05:51:15;10.00;99.90
46117;DHT22;32591;48.102;11.772;2023-05-01T05:53:42;10.00;99.90
46117;DHT22;32591;48.102;11.772;2023-05-01T05:56:09;10.10;99.90
46117;DHT22;32591;48.102;11.772;2023-05-01T05:58:36;10.20;99.90
46117;DHT22;32591;48.102;11.772;2023-05-01T06:01:03;10.30;99.90
46117;DHT22;32591;48.102;11.772;2023-05-01T06:03:31;10.40;99.90
46117;DHT22;32591;48.102;11.772;2023-05-01T06:06:00;10.50;99.90
46117;DHT22;32591;48.102;11.772;2023-05-01T06:08:27;10.60;99.90
46117;DHT22;32591;48.102;11.772;2023-05-01T06:10:54;10.60;99.90
46117;DHT22;32591;48.102;11.772;2023-05-01T06:13:23;10.70;99.90
46117;DHT22;32591;48.102;11.772;2023-05-01T06:15:50;10.70;99.90
46117;DHT22;32591;48.102;11.772;2023-05-01T06:18:17;10.80;99.90
46117;DHT22;32591;48.102;11.772;2023-05-01T06:20:44;10.80;99.90
46117;DHT22;32591;48.102;11.772;2023-05-01T06:23:13;10.70;99.90
46117;DHT22;32591;48.102;11.772;2023-05-01T06:25:40;10.70;99.90
46117;DHT22;32591;48.102;11.772;2023-05-01T06:28:08;10.70;99.90
46117;DHT22;32591;48.102;11.772;2023-05-01T06:30:35;10.80;99.90
46117;DHT22;32591;48.102;11.772;2023-05-01T06:33:02;10.90;99.90
46117;DHT22;32591;48.102;11.772;2023-05-01T06:35:29;10.90;99.90
46117;DHT22;32591;48.102;11.772;2023-05-01T06:37:56;10.80;99.90
46117;DHT22;32591;48.102;11.772;2023-05-01T06:40:26;10.90;99.90
46117;DHT22;32591;48.102;11.772;2023-05-01T06:42:53;11.10;99.90
46117;DHT22;32591;48.102;11.772;2023-05-01T06:45:20;11.10;99.90
46117;DHT22;32591;48.102;11.772;2023-05-01T06:47:47;11.20;99.90
46117;DHT22;32591;48.102;11.772;2023-05-01T06:50:14;11.40;99.90
46117;DHT22;32591;48.102;11.772;2023-05-01T06:52:42;11.40;99.90
46117;DHT22;32591;48.102;11.772;2023-05-01T06:55:09;11.50;99.90
46117;DHT22;32591;48.102;11.772;2023-05-01T06:57:38;11.40;99.90
46117;DHT22;32591;48.102;11.772;2023-05-01T07:00:06;11.40;99.90
46117;DHT22;32591;48.102;11.772;2023-05-01T07:02:35;11.40;99.90
46117;DHT22;32591;48.102;11.772;2023-05-01T07:05:02;11.50;99.90
46117;DHT22;32591;48.102;11.772;2023-05-01T07:07:30;11.50;99.90
46117;DHT22;32591;48.102;11.772;2023-05-01T07:09:57;11.60;99.90
46117;DHT22;32591;48.102;11.772;2023-05-01T07:12:24;11.60;99.90
46117;DHT22;32591;48.102;11.772;2023-05-01T07:14:52;11.40;99.90
46117;DHT22;32591;48.102;11.772;2023-05-01T07:17:19;11.50;99.90
46117;DHT22;32591;48.102;11.772;2023-05-01T07:19:46;11.50;99.90
46117;DHT22;32591;48.102;11.772;2023-05-01T07:22:14;11.50;99.90
46117;DHT22;32591;48.102;11.772;2023-05-01T07:24:41;11.60;99.90
46117;DHT22;32591;48.102;11.772;2023-05-01T07:27:08;11.70;99.90
46117;DHT22;32591;48.102;11.772;2023-05-01T07:29:37;11.80;99.90
46117;DHT22;32591;48.102;11.772;2023-05-01T07:32:05;11.90;99.90
46117;DHT22;32591;48.102;11.772;2023-05-01T07:34:32;11.80;99.90
46117;DHT22;32591;48.102;11.772;2023-05-01T07:36:59;11.90;99.90
46117;DHT22;32591;48.102;11.772;2023-05-01T07:39:26;11.80;99.90
46117;DHT22;32591;48.102;11.772;2023-05-01T07:41:55;11.80;99.90
46117;DHT22;32591;48.102;11.772;2023-05-01T07:44:22;11.80;99.90
46117;DHT22;32591;48.102;11.772;2023-05-01T07:46:49;11.90;99.90
46117;DHT22;32591;48.102;11.772;2023-05-01T07:49:17;12.00;99.90
46117;DHT22;32591;48.102;11.772;2023-05-01T07:51:44;11.90;99.90
46117;DHT22;32591;48.102;11.772;2023-05-01T07:54:11;11.90;99.90
46117;DHT22;32591;48.102;11.772;2023-05-01T07:56:40;12.00;99.90
46117;DHT22;32591;48.102;11.772;2023-05-01T07:59:07;12.00;99.90
46117;DHT22;32591;48.102;11.772;2023-05-01T08:01:35;12.00;99.90
46117;DHT22;32591;48.102;11.772;2023-05-01T08:04:02;12.10;99.90
46117;DHT22;32591;48.102;11.772;2023-05-01T08:06:31;12.00;99.90
46117;DHT22;32591;48.102;11.772;2023-05-01T08:08:58;11.80;99.90
46117;DHT22;32591;48.102;11.772;2023-05-01T08:11:25;11.80;99.90
46117;DHT22;32591;48.102;11.772;2023-05-01T08:13:54;11.90;99.90
46117;DHT22;32591;48.102;11.772;2023-05-01T08:16:21;11.80;99.90
46117;DHT22;32591;48.102;11.772;2023-05-01T08:18:47;11.80;99.90
46117;DHT22;32591;48.102;11.772;2023-05-01T08:21:15;11.80;99.90
46117;DHT22;32591;48.102;11.772;2023-05-01T08:23:43;11.80;99.90
46117;DHT22;32591;48.102;11.772;2023-05-01T08:26:11;11.90;99.90
46117;DHT22;32591;48.102;11.772;2023-05-01T08:28:37;11.90;99.90
46117;DHT22;32591;48.102;11.772;2023-05-01T08:31:04;11.90;99.90
46117;DHT22;32591;48.102;11.772;2023-05-01T08:33:32;11.90;99.90
46117;DHT22;32591;48.102;11.772;2023-05-01T08:35:59;12.00;99.90
46117;DHT22;32591;48.102;11.772;2023-05-01T08:38:26;12.10;99.90
46117;DHT22;32591;48.102;11.772;2023-05-01T08:40:54;12.30;99.90
46117;DHT22;32591;48.102;11.772;2023-05-01T08:43:24;12.30;99.90
46117;DHT22;32591;48.102;11.772;2023-05-01T08:45:53;12.20;99.90
46117;DHT22;32591;48.102;11.772;2023-05-01T08:48:22;12.30;99.90
46117;DHT22;32591;48.102;11.772;2023-05-01T08:50:54;12.20;99.90
46117;DHT22;32591;48.102;11.772;2023-05-01T08:53:24;12.40;99.90
46117;DHT22;32591;48.102;11.772;2023-05-01T08:55:54;12.40;99.90
46117;DHT22;32591;48.102;11.772;2023-05-01T08:58:23;12.50;99.90
46117;DHT22;32591;48.102;11.772;2023-05-01T09:00:52;12.40;99.90
46117;DHT22;32591;48.102;11.772;2023-05-01T09:03:21;12.40;99.90
46117;DHT22;32591;48.102;11.772;2023-05-01T09:05:48;12.60;99.90
46117;DHT22;32591;48.102;11.772;2023-05-01T09:08:16;12.60;99.90
46117;DHT22;32591;48.102;11.772;2023-05-01T09:10:45;12.60;99.90
46117;DHT22;32591;48.102;11.772;2023-05-01T09:13:15;12.70;99.90
46117;DHT22;32591;48.102;11.772;2023-05-01T09:15:42;12.70;99.90
46117;DHT22;32591;48.102;11.772;2023-05-01T09:18:10;12.80;99.90
46117;DHT22;32591;48.102;11.772;2023-05-01T09:20:37;12.80;99.90
46117;DHT22;32591;48.102;11.772;2023-05-01T09:23:04;12.90;99.90
46117;DHT22;32591;48.102;11.772;2023-05-01T09:25:31;13.00;99.90
46117;DHT22;32591;48.102;11.772;2023-05-01T09:27:58;13.10;99.90
46117;DHT22;32591;48.102;11.772;2023-05-01T09:30:31;13.20;99.90
46117;DHT22;32591;48.102;11.772;2023-05-01T09:33:06;13.20;99.90
46117;DHT22;32591;48.102;11.772;2023-05-01T09:35:48;13.30;99.90
46117;DHT22;32591;48.102;11.772;2023-05-01T09:38:17;13.20;99.90
46117;DHT22;32591;48.102;11.772;2023-05-01T09:40:44;13.10;99.90
46117;DHT22;32591;48.102;11.772;2023-05-01T09:43:12;13.10;99.90
46117;DHT22;32591;48.102;11.772;2023-05-01T09:45:42;13.20;99.90
46117;DHT22;32591;48.102;11.772;2023-05-01T09:48:25;13.20;99.90
46117;DHT22;32591;48.102;11.772;2023-05-01T09:50:52;13.10;99.90
46117;DHT22;32591;48.102;11.772;2023-05-01T09:53:19;13.00;99.90
46117;DHT22;32591;48.102;11.772;2023-05-01T09:56:00;13.10;99.90
46117;DHT22;32591;48.102;11.772;2023-05-01T09:58:27;13.00;99.90
46117;DHT22;32591;48.102;11.772;2023-05-01T10:00:55;13.00;99.90
46117;DHT22;32591;48.102;11.772;2023-05-01T10:03:22;13.10;99.90
46117;DHT22;32591;48.102;11.772;2023-05-01T10:05:49;13.00;99.90
46117;DHT22;32591;48.102;11.772;2023-05-01T10:08:17;13.10;99.90
46117;DHT22;32591;48.102;11.772;2023-05-01T10:10:58;13.00;99.90
46117;DHT22;32591;48.102;11.772;2023-05-01T10:13:27;13.00;99.90
46117;DHT22;32591;48.102;11.772;2023-05-01T10:15:56;13.00;99.90
46117;DHT22;32591;48.102;11.772;2023-05-01T10:18:26;13.00;99.90
46117;DHT22;32591;48.102;11.772;2023-05-01T10:20:55;13.00;99.90
46117;DHT22;32591;48.102;11.772;2023-05-01T10:23:24;12.90;99.90
46117;DHT22;32591;48.102;11.772;2023-05-01T10:25:52;12.90;99.90
46117;DHT22;32591;48.102;11.772;2023-05-01T10:28:20;12.80;99.90
46117;DHT22;32591;48.102;11.772;2023-05-01T10:30:48;12.80;99.90
46117;DHT22;32591;48.102;11.772;2023-05-01T10:33:16;12.80;99.90
46117;DHT22;32591;48.102;11.772;2023-05-01T10:35:47;12.80;99.90
46117;DHT22;32591;48.102;11.772;2023-05-01T10:38:21;12.80;99.90
46117;DHT22;32591;48.102;11.772;2023-05-01T10:40:49;13.00;99.90
46117;DHT22;32591;48.102;11.772;2023-05-01T10:43:18;12.90;99.90
46117;DHT22;32591;48.102;11.772;2023-05-01T10:45:51;13.00;99.90
46117;DHT22;32591;48.102;11.772;2023-05-01T10:48:53;13.10;99.90
46117;DHT22;32591;48.102;11.772;2023-05-01T10:51:22;13.30;99.90
46117;DHT22;32591;48.102;11.772;2023-05-01T10:54:23;13.30;99.90
46117;DHT22;32591;48.102;11.772;2023-05-01T10:56:52;13.40;99.90
46117;DHT22;32591;48.102;11.772;2023-05-01T10:59:19;13.30;99.90
46117;DHT22;32591;48.102;11.772;2023-05-01T11:01:47;13.40;99.90
46117;DHT22;32591;48.102;11.772;2023-05-01T11:04:46;13.40;99.90
46117;DHT22;32591;48.102;11.772;2023-05-01T11:07:19;13.60;99.90
46117;DHT22;32591;48.102;11.772;2023-05-01T11:09:50;13.80;99.90
46117;DHT22;32591;48.102;11.772;2023-05-01T11:12:47;13.90;99.90
46117;DHT22;32591;48.102;11.772;2023-05-01T11:15:30;13.90;99.90
46117;DHT22;32591;48.102;11.772;2023-05-01T11:17:59;14.10;99.90
46117;DHT22;32591;48.102;11.772;2023-05-01T11:20:49;14.30;99.90
46117;DHT22;32591;48.102;11.772;2023-05-01T11:23:17;14.20;99.90
46117;DHT22;32591;48.102;11.772;2023-05-01T11:25:46;14.10;99.90
46117;DHT22;32591;48.102;11.772;2023-05-01T11:28:20;13.90;99.90
46117;DHT22;32591;48.102;11.772;2023-05-01T11:30:47;13.80;99.90
46117;DHT22;32591;48.102;11.772;2023-05-01T11:33:21;13.80;99.90
46117;DHT22;32591;48.102;11.772;2023-05-01T11:35:59;13.90;99.90
46117;DHT22;32591;48.102;11.772;2023-05-01T11:38:26;14.00;99.90
46117;DHT22;32591;48.102;11.772;2023-05-01T11:40:57;14.00;99.90
46117;DHT22;32591;48.102;11.772;2023-05-01T11:43:25;13.90;99.90
46117;DHT22;32591;48.102;11.772;2023-05-01T11:45:53;13.80;99.90
46117;DHT22;32591;48.102;11.772;2023-05-01T11:48:31;13.80;99.90
46117;DHT22;32591;48.102;11.772;2023-05-01T11:51:00;13.80;99.90
46117;DHT22;32591;48.102;11.772;2023-05-01T11:53:27;13.70;99.90
46117;DHT22;32591;48.102;11.772;2023-05-01T11:55:54;13.60;99.90
46117;DHT22;32591;48.102;11.772;2023-05-01T11:58:34;13.50;99.90
46117;DHT22;32591;48.102;11.772;2023-05-01T12:01:02;13.60;99.90
46117;DHT22;32591;48.102;11.772;2023-05-01T12:03:40;13.50;99.90
46117;DHT22;32591;48.102;11.772;2023-05-01T12:06:09;13.30;99.90
46117;DHT22;32591;48.102;11.772;2023-05-01T12:08:41;13.30;99.90
46117;DHT22;32591;48.102;11.772;2023-05-01T12:11:09;13.30;99.90
46117;DHT22;32591;48.102;11.772;2023-05-01T12:13:38;13.30;99.90
46117;DHT22;32591;48.102;11.772;2023-05-01T12:16:06;13.30;99.90
46117;DHT22;32591;48.102;11.772;2023-05-01T12:18:34;13.30;99.90
46117;DHT22;32591;48.102;11.772;2023-05-01T12:21:01;13.20;99.90
46117;DHT22;32591;48.102;11.772;2023-05-01T12:23:34;13.30;99.90
46117;DHT22;32591;48.102;11.772;2023-05-01T12:26:15;13.40;99.90
46117;DHT22;32591;48.102;11.772;2023-05-01T12:28:52;13.30;99.90
46117;DHT22;32591;48.102;11.772;2023-05-01T12:31:23;13.40;99.90
46117;DHT22;32591;48.102;11.772;2023-05-01T12:33:54;13.30;99.90
46117;DHT22;32591;48.102;11.772;2023-05-01T12:36:23;13.20;99.90
46117;DHT22;32591;48.102;11.772;2023-05-01T12:38:57;13.20;99.90
46117;DHT22;32591;48.102;11.772;2023-05-01T12:41:33;13.30;99.90
46117;DHT22;32591;48.102;11.772;2023-05-01T12:44:01;13.30;99.90
46117;DHT22;32591;48.102;11.772;2023-05-01T12:46:28;13.30;99.90
46117;DHT22;32591;48.102;11.772;2023-05-01T12:48:55;13.40;99.90
46117;DHT22;32591;48.102;11.772;2023-05-01T12:51:22;13.40;99.90
46117;DHT22;32591;48.102;11.772;2023-05-01T12:53:52;13.30;99.90
46117;DHT22;32591;48.102;11.772;2023-05-01T12:56:24;13.30;99.90
46117;DHT22;32591;48.102;11.772;2023-05-01T12:58:51;13.40;99.90
46117;DHT22;32591;48.102;11.772;2023-05-01T13:01:23;13.50;99.90
46117;DHT22;32591;48.102;11.772;2023-05-01T13:03:52;13.40;99.90
46117;DHT22;32591;48.102;11.772;2023-05-01T13:06:21;13.40;99.90
46117;DHT22;32591;48.102;11.772;2023-05-01T13:08:49;13.20;99.90
46117;DHT22;32591;48.102;11.772;2023-05-01T13:11:16;13.00;99.90
46117;DHT22;32591;48.102;11.772;2023-05-01T13:13:45;13.10;99.90
46117;DHT22;32591;48.102;11.772;2023-05-01T13:16:14;13.00;99.90
46117;DHT22;32591;48.102;11.772;2023-05-01T13:18:43;13.30;99.90
46117;DHT22;32591;48.102;11.772;2023-05-01T13:21:13;13.40;99.90
46117;DHT22;32591;48.102;11.772;2023-05-01T13:23:41;13.50;99.90
46117;DHT22;32591;48.102;11.772;2023-05-01T13:26:09;13.60;99.90
46117;DHT22;32591;48.102;11.772;2023-05-01T13:28:42;13.50;99.90
46117;DHT22;32591;48.102;11.772;2023-05-01T13:31:13;13.60;99.90
46117;DHT22;32591;48.102;11.772;2023-05-01T13:33:40;13.60;99.90
46117;DHT22;32591;48.102;11.772;2023-05-01T13:36:09;13.70;99.90
46117;DHT22;32591;48.102;11.772;2023-05-01T13:38:41;13.80;99.90
46117;DHT22;32591;48.102;11.772;2023-05-01T13:41:15;14.00;99.90
46117;DHT22;32591;48.102;11.772;2023-05-01T13:43:44;14.00;99.90
46117;DHT22;32591;48.102;11.772;2023-05-01T13:46:14;13.90;99.90
46117;DHT22;32591;48.102;11.772;2023-05-01T13:48:41;14.00;99.90
46117;DHT22;32591;48.102;11.772;2023-05-01T13:51:11;13.90;99.90
46117;DHT22;32591;48.102;11.772;2023-05-01T13:53:40;13.90;99.90
46117;DHT22;32591;48.102;11.772;2023-05-01T13:56:08;13.90;99.90
46117;DHT22;32591;48.102;11.772;2023-05-01T13:58:38;13.90;99.90
46117;DHT22;32591;48.102;11.772;2023-05-01T14:01:09;14.00;99.90
46117;DHT22;32591;48.102;11.772;2023-05-01T14:03:43;13.90;99.90
46117;DHT22;32591;48.102;11.772;2023-05-01T14:06:12;13.80;99.90
46117;DHT22;32591;48.102;11.772;2023-05-01T14:08:41;13.90;99.90
46117;DHT22;32591;48.102;11.772;2023-05-01T14:11:09;13.90;99.90
46117;DHT22;32591;48.102;11.772;2023-05-01T14:13:39;13.90;99.90
46117;DHT22;32591;48.102;11.772;2023-05-01T14:16:07;14.00;99.90
46117;DHT22;32591;48.102;11.772;2023-05-01T14:18:43;13.90;99.90
46117;DHT22;32591;48.102;11.772;2023-05-01T14:21:11;14.00;99.90
46117;DHT22;32591;48.102;11.772;2023-05-01T14:23:38;13.90;99.90
46117;DHT22;32591;48.102;11.772;2023-05-01T14:26:07;13.90;99.90
46117;DHT22;32591;48.102;11.772;2023-05-01T14:28:40;14.00;99.90
46117;DHT22;32591;48.102;11.772;2023-05-01T14:31:14;14.10;99.90
46117;DHT22;32591;48.102;11.772;2023-05-01T14:33:44;14.10;99.90
46117;DHT22;32591;48.102;11.772;2023-05-01T14:36:12;14.00;99.90
46117;DHT22;32591;48.102;11.772;2023-05-01T14:38:39;14.00;99.90
46117;DHT22;32591;48.102;11.772;2023-05-01T14:41:06;13.80;99.90
46117;DHT22;32591;48.102;11.772;2023-05-01T14:43:40;13.70;99.90
46117;DHT22;32591;48.102;11.772;2023-05-01T14:46:11;13.80;99.90
46117;DHT22;32591;48.102;11.772;2023-05-01T14:48:40;13.70;99.90
46117;DHT22;32591;48.102;11.772;2023-05-01T14:51:11;13.70;99.90
46117;DHT22;32591;48.102;11.772;2023-05-01T14:53:39;13.70;99.90
46117;DHT22;32591;48.102;11.772;2023-05-01T14:56:08;13.70;99.90
46117;DHT22;32591;48.102;11.772;2023-05-01T14:58:35;13.80;99.90
46117;DHT22;32591;48.102;11.772;2023-05-01T15:01:02;13.90;99.90
46117;DHT22;32591;48.102;11.772;2023-05-01T15:03:30;13.80;99.90
46117;DHT22;32591;48.102;11.772;2023-05-01T15:05:57;13.80;99.90
46117;DHT22;32591;48.102;11.772;2023-05-01T15:08:26;13.80;99.90
46117;DHT22;32591;48.102;11.772;2023-05-01T15:10:54;13.80;99.90
46117;DHT22;32591;48.102;11.772;2023-05-01T15:13:21;13.80;99.90
46117;DHT22;32591;48.102;11.772;2023-05-01T15:15:48;13.90;99.90
46117;DHT22;32591;48.102;11.772;2023-05-01T15:18:16;13.80;99.90
46117;DHT22;32591;48.102;11.772;2023-05-01T15:20:43;13.70;99.90
46117;DHT22;32591;48.102;11.772;2023-05-01T15:23:10;13.80;99.90
46117;DHT22;32591;48.102;11.772;2023-05-01T15:25:39;13.80;99.90
46117;DHT22;32591;48.102;11.772;2023-05-01T15:28:08;13.90;99.90
46117;DHT22;32591;48.102;11.772;2023-05-01T15:30:35;13.90;99.90
46117;DHT22;32591;48.102;11.772;2023-05-01T15:33:02;13.90;99.90